Cedarpines Park, California
Current Conditions -  °F | °C
As of 4:53 PM on Wednesday 26 Nov 2014 (Local Time) from KONT Reporting Station
Clear Clear  
Wind Chill: 81°   Ceiling: Unl
Heat Index: 81°   Visibility: 10mi
Dew Point: 21°   Wind: 3mph
Humidity: 11%   Direction: 310°NW
Pressure: 30.15"   Gusts: NA
Location:  34.25°N, 117.33°W
Report Text: KONT 270053Z 31003KT 10SM CLR 27/M06 A3015 RMK AO2 SLP198 T02721061
Loading
Personal Weather Stations






























Interactive Weather Map New forecast layout! Learn more

10-Day Weather Forecast

Advertisements
Track Severe Weather on mobile